sensor_id;sensor_type;location;lat;lon;timestamp;P1;durP1;ratioP1;P2;durP2;ratioP2
81648;SDS011;71057;51.436;6.768;2023-11-19T00:00:47;8.02;;;5.55;;
81648;SDS011;71057;51.436;6.768;2023-11-19T00:03:12;6.20;;;4.90;;
81648;SDS011;71057;51.436;6.768;2023-11-19T00:05:38;5.35;;;4.53;;
81648;SDS011;71057;51.436;6.768;2023-11-19T00:08:04;8.10;;;4.65;;
81648;SDS011;71057;51.436;6.768;2023-11-19T00:10:30;8.52;;;5.88;;
81648;SDS011;71057;51.436;6.768;2023-11-19T00:12:56;7.28;;;4.63;;
81648;SDS011;71057;51.436;6.768;2023-11-19T00:15:22;7.22;;;5.10;;
81648;SDS011;71057;51.436;6.768;2023-11-19T00:17:49;9.40;;;5.13;;
81648;SDS011;71057;51.436;6.768;2023-11-19T00:20:15;6.72;;;4.32;;
81648;SDS011;71057;51.436;6.768;2023-11-19T00:22:42;5.95;;;4.40;;
81648;SDS011;71057;51.436;6.768;2023-11-19T00:25:08;6.35;;;4.63;;
81648;SDS011;71057;51.436;6.768;2023-11-19T00:27:35;7.13;;;4.63;;
81648;SDS011;71057;51.436;6.768;2023-11-19T00:30:01;6.25;;;4.70;;
81648;SDS011;71057;51.436;6.768;2023-11-19T00:32:26;6.47;;;4.43;;
81648;SDS011;71057;51.436;6.768;2023-11-19T00:34:51;6.13;;;3.87;;
81648;SDS011;71057;51.436;6.768;2023-11-19T00:37:17;6.05;;;4.03;;
81648;SDS011;71057;51.436;6.768;2023-11-19T00:39:42;5.90;;;4.63;;
81648;SDS011;71057;51.436;6.768;2023-11-19T00:42:08;5.95;;;4.13;;
81648;SDS011;71057;51.436;6.768;2023-11-19T00:44:35;7.07;;;5.00;;
81648;SDS011;71057;51.436;6.768;2023-11-19T00:47:00;5.60;;;4.30;;
81648;SDS011;71057;51.436;6.768;2023-11-19T00:49:26;7.05;;;4.72;;
81648;SDS011;71057;51.436;6.768;2023-11-19T00:51:51;5.15;;;3.95;;
81648;SDS011;71057;51.436;6.768;2023-11-19T00:54:16;5.57;;;4.40;;
81648;SDS011;71057;51.436;6.768;2023-11-19T00:56:42;6.70;;;4.88;;
81648;SDS011;71057;51.436;6.768;2023-11-19T00:59:07;5.47;;;4.55;;
81648;SDS011;71057;51.436;6.768;2023-11-19T01:01:32;5.45;;;4.90;;
81648;SDS011;71057;51.436;6.768;2023-11-19T01:03:58;5.97;;;4.68;;
81648;SDS011;71057;51.436;6.768;2023-11-19T01:06:30;6.30;;;5.22;;
81648;SDS011;71057;51.436;6.768;2023-11-19T01:08:56;4.43;;;3.42;;
81648;SDS011;71057;51.436;6.768;2023-11-19T01:11:25;5.78;;;3.35;;
81648;SDS011;71057;51.436;6.768;2023-11-19T01:13:51;5.10;;;3.03;;
81648;SDS011;71057;51.436;6.768;2023-11-19T01:16:17;4.85;;;3.55;;
81648;SDS011;71057;51.436;6.768;2023-11-19T01:18:43;4.70;;;3.58;;
81648;SDS011;71057;51.436;6.768;2023-11-19T01:21:09;4.40;;;3.40;;
81648;SDS011;71057;51.436;6.768;2023-11-19T01:23:35;5.75;;;4.00;;
81648;SDS011;71057;51.436;6.768;2023-11-19T01:26:00;4.82;;;4.30;;
81648;SDS011;71057;51.436;6.768;2023-11-19T01:28:26;4.72;;;3.53;;
81648;SDS011;71057;51.436;6.768;2023-11-19T01:30:51;3.87;;;3.03;;
81648;SDS011;71057;51.436;6.768;2023-11-19T01:33:17;3.60;;;3.22;;
81648;SDS011;71057;51.436;6.768;2023-11-19T01:35:42;5.40;;;2.92;;
81648;SDS011;71057;51.436;6.768;2023-11-19T01:38:07;4.23;;;2.80;;
81648;SDS011;71057;51.436;6.768;2023-11-19T01:40:33;4.75;;;3.45;;
81648;SDS011;71057;51.436;6.768;2023-11-19T01:42:59;5.80;;;3.55;;
81648;SDS011;71057;51.436;6.768;2023-11-19T01:45:28;5.72;;;3.58;;
81648;SDS011;71057;51.436;6.768;2023-11-19T01:47:54;3.92;;;3.38;;
81648;SDS011;71057;51.436;6.768;2023-11-19T01:50:20;4.32;;;2.97;;
81648;SDS011;71057;51.436;6.768;2023-11-19T01:52:47;3.78;;;2.67;;
81648;SDS011;71057;51.436;6.768;2023-11-19T01:55:13;5.32;;;3.60;;
81648;SDS011;71057;51.436;6.768;2023-11-19T01:57:38;4.57;;;3.47;;
81648;SDS011;71057;51.436;6.768;2023-11-19T02:00:06;3.50;;;3.00;;
81648;SDS011;71057;51.436;6.768;2023-11-19T02:02:36;6.40;;;3.45;;
81648;SDS011;71057;51.436;6.768;2023-11-19T02:05:01;5.63;;;4.45;;
81648;SDS011;71057;51.436;6.768;2023-11-19T02:07:27;6.80;;;3.90;;
81648;SDS011;71057;51.436;6.768;2023-11-19T02:09:53;4.95;;;3.63;;
81648;SDS011;71057;51.436;6.768;2023-11-19T02:12:18;6.97;;;3.35;;
81648;SDS011;71057;51.436;6.768;2023-11-19T02:14:45;5.25;;;4.00;;
81648;SDS011;71057;51.436;6.768;2023-11-19T02:17:26;4.18;;;3.00;;
81648;SDS011;71057;51.436;6.768;2023-11-19T02:19:52;6.45;;;3.50;;
81648;SDS011;71057;51.436;6.768;2023-11-19T02:22:18;5.18;;;3.13;;
81648;SDS011;71057;51.436;6.768;2023-11-19T02:24:43;5.73;;;3.03;;
81648;SDS011;71057;51.436;6.768;2023-11-19T02:27:14;4.68;;;2.58;;
81648;SDS011;71057;51.436;6.768;2023-11-19T02:29:49;7.80;;;3.65;;
81648;SDS011;71057;51.436;6.768;2023-11-19T02:32:15;8.75;;;4.05;;
81648;SDS011;71057;51.436;6.768;2023-11-19T02:34:41;9.13;;;4.15;;
81648;SDS011;71057;51.436;6.768;2023-11-19T02:37:07;9.90;;;3.97;;
81648;SDS011;71057;51.436;6.768;2023-11-19T02:39:33;12.25;;;4.00;;
81648;SDS011;71057;51.436;6.768;2023-11-19T02:41:58;5.18;;;2.85;;
81648;SDS011;71057;51.436;6.768;2023-11-19T02:44:24;7.28;;;2.78;;
81648;SDS011;71057;51.436;6.768;2023-11-19T02:46:53;8.70;;;2.33;;
81648;SDS011;71057;51.436;6.768;2023-11-19T02:49:18;6.80;;;2.60;;
81648;SDS011;71057;51.436;6.768;2023-11-19T02:51:43;3.13;;;2.03;;
81648;SDS011;71057;51.436;6.768;2023-11-19T02:54:09;10.77;;;2.83;;
81648;SDS011;71057;51.436;6.768;2023-11-19T02:56:34;5.93;;;2.13;;
81648;SDS011;71057;51.436;6.768;2023-11-19T02:59:02;7.13;;;3.00;;
81648;SDS011;71057;51.436;6.768;2023-11-19T03:01:39;8.80;;;3.40;;
81648;SDS011;71057;51.436;6.768;2023-11-19T03:04:08;6.70;;;2.10;;
81648;SDS011;71057;51.436;6.768;2023-11-19T03:06:37;5.32;;;2.50;;
81648;SDS011;71057;51.436;6.768;2023-11-19T03:09:02;10.35;;;3.95;;
81648;SDS011;71057;51.436;6.768;2023-11-19T03:11:35;8.27;;;2.47;;
81648;SDS011;71057;51.436;6.768;2023-11-19T03:14:00;5.00;;;2.83;;
81648;SDS011;71057;51.436;6.768;2023-11-19T03:16:25;10.03;;;2.87;;
81648;SDS011;71057;51.436;6.768;2023-11-19T03:18:50;6.72;;;2.38;;
81648;SDS011;71057;51.436;6.768;2023-11-19T03:21:16;9.03;;;2.20;;
81648;SDS011;71057;51.436;6.768;2023-11-19T03:23:41;7.70;;;3.07;;
81648;SDS011;71057;51.436;6.768;2023-11-19T03:26:06;9.50;;;4.35;;
81648;SDS011;71057;51.436;6.768;2023-11-19T03:28:33;9.20;;;2.72;;
81648;SDS011;71057;51.436;6.768;2023-11-19T03:30:58;9.27;;;2.15;;
81648;SDS011;71057;51.436;6.768;2023-11-19T03:33:23;5.57;;;3.05;;
81648;SDS011;71057;51.436;6.768;2023-11-19T03:35:50;8.15;;;3.35;;
81648;SDS011;71057;51.436;6.768;2023-11-19T03:38:17;13.95;;;3.55;;
81648;SDS011;71057;51.436;6.768;2023-11-19T03:40:42;14.50;;;3.63;;
81648;SDS011;71057;51.436;6.768;2023-11-19T03:43:07;10.07;;;2.67;;
81648;SDS011;71057;51.436;6.768;2023-11-19T03:45:34;11.00;;;2.80;;
81648;SDS011;71057;51.436;6.768;2023-11-19T03:48:01;8.80;;;2.83;;
81648;SDS011;71057;51.436;6.768;2023-11-19T03:50:26;11.10;;;2.88;;
81648;SDS011;71057;51.436;6.768;2023-11-19T03:52:51;17.27;;;4.37;;
81648;SDS011;71057;51.436;6.768;2023-11-19T03:55:17;9.55;;;2.92;;
81648;SDS011;71057;51.436;6.768;2023-11-19T03:57:43;10.85;;;2.33;;
81648;SDS011;71057;51.436;6.768;2023-11-19T04:00:08;8.93;;;2.83;;
81648;SDS011;71057;51.436;6.768;2023-11-19T04:02:35;11.85;;;3.35;;
81648;SDS011;71057;51.436;6.768;2023-11-19T04:05:00;9.98;;;2.80;;
81648;SDS011;71057;51.436;6.768;2023-11-19T04:07:25;9.03;;;2.83;;
81648;SDS011;71057;51.436;6.768;2023-11-19T04:09:50;9.93;;;2.70;;
81648;SDS011;71057;51.436;6.768;2023-11-19T04:12:16;10.17;;;2.87;;
81648;SDS011;71057;51.436;6.768;2023-11-19T04:14:41;12.57;;;3.03;;
81648;SDS011;71057;51.436;6.768;2023-11-19T04:17:07;9.73;;;2.88;;
81648;SDS011;71057;51.436;6.768;2023-11-19T04:19:32;17.37;;;3.43;;
81648;SDS011;71057;51.436;6.768;2023-11-19T04:21:58;13.13;;;2.77;;
81648;SDS011;71057;51.436;6.768;2023-11-19T04:24:23;11.82;;;3.67;;
81648;SDS011;71057;51.436;6.768;2023-11-19T04:26:49;14.50;;;3.35;;
81648;SDS011;71057;51.436;6.768;2023-11-19T04:29:15;10.52;;;2.75;;
81648;SDS011;71057;51.436;6.768;2023-11-19T04:31:44;11.85;;;3.55;;
81648;SDS011;71057;51.436;6.768;2023-11-19T04:34:10;12.57;;;4.45;;
81648;SDS011;71057;51.436;6.768;2023-11-19T04:36:36;12.52;;;3.17;;
81648;SDS011;71057;51.436;6.768;2023-11-19T04:39:02;12.85;;;2.85;;
81648;SDS011;71057;51.436;6.768;2023-11-19T04:41:32;11.77;;;2.78;;
81648;SDS011;71057;51.436;6.768;2023-11-19T04:43:57;12.90;;;2.63;;
81648;SDS011;71057;51.436;6.768;2023-11-19T04:46:22;12.57;;;4.13;;
81648;SDS011;71057;51.436;6.768;2023-11-19T04:48:49;11.00;;;3.08;;
81648;SDS011;71057;51.436;6.768;2023-11-19T04:51:14;10.45;;;2.95;;
81648;SDS011;71057;51.436;6.768;2023-11-19T04:53:39;13.43;;;3.53;;
81648;SDS011;71057;51.436;6.768;2023-11-19T04:56:08;15.27;;;3.07;;
81648;SDS011;71057;51.436;6.768;2023-11-19T04:58:34;13.02;;;3.42;;
81648;SDS011;71057;51.436;6.768;2023-11-19T05:01:01;14.20;;;3.65;;
81648;SDS011;71057;51.436;6.768;2023-11-19T05:03:26;26.80;;;6.85;;
81648;SDS011;71057;51.436;6.768;2023-11-19T05:05:52;22.02;;;8.50;;
81648;SDS011;71057;51.436;6.768;2023-11-19T05:08:17;25.37;;;9.50;;
81648;SDS011;71057;51.436;6.768;2023-11-19T05:10:42;19.37;;;7.13;;
81648;SDS011;71057;51.436;6.768;2023-11-19T05:13:07;31.50;;;9.73;;
81648;SDS011;71057;51.436;6.768;2023-11-19T05:15:33;28.60;;;11.13;;
81648;SDS011;71057;51.436;6.768;2023-11-19T05:17:58;23.65;;;10.13;;
81648;SDS011;71057;51.436;6.768;2023-11-19T05:20:23;19.20;;;6.10;;
81648;SDS011;71057;51.436;6.768;2023-11-19T05:22:48;26.83;;;7.63;;
81648;SDS011;71057;51.436;6.768;2023-11-19T05:25:16;26.88;;;7.05;;
81648;SDS011;71057;51.436;6.768;2023-11-19T05:27:41;23.23;;;8.80;;
81648;SDS011;71057;51.436;6.768;2023-11-19T05:30:07;32.20;;;8.47;;
81648;SDS011;71057;51.436;6.768;2023-11-19T05:32:32;30.80;;;11.10;;
81648;SDS011;71057;51.436;6.768;2023-11-19T05:34:58;18.60;;;5.70;;
81648;SDS011;71057;51.436;6.768;2023-11-19T05:37:23;33.00;;;9.50;;
81648;SDS011;71057;51.436;6.768;2023-11-19T05:39:49;27.42;;;9.15;;
81648;SDS011;71057;51.436;6.768;2023-11-19T05:42:15;25.52;;;6.82;;
81648;SDS011;71057;51.436;6.768;2023-11-19T05:44:40;32.97;;;9.43;;
81648;SDS011;71057;51.436;6.768;2023-11-19T05:47:06;24.23;;;7.65;;
81648;SDS011;71057;51.436;6.768;2023-11-19T05:49:32;35.88;;;10.68;;
81648;SDS011;71057;51.436;6.768;2023-11-19T05:51:58;40.20;;;14.35;;
81648;SDS011;71057;51.436;6.768;2023-11-19T05:54:23;31.48;;;11.43;;
81648;SDS011;71057;51.436;6.768;2023-11-19T05:56:48;41.10;;;15.90;;
81648;SDS011;71057;51.436;6.768;2023-11-19T05:59:14;38.85;;;14.65;;
81648;SDS011;71057;51.436;6.768;2023-11-19T06:01:42;24.27;;;7.22;;
81648;SDS011;71057;51.436;6.768;2023-11-19T06:04:08;33.28;;;10.13;;
81648;SDS011;71057;51.436;6.768;2023-11-19T06:06:33;23.93;;;8.77;;
81648;SDS011;71057;51.436;6.768;2023-11-19T06:08:59;39.08;;;11.13;;
81648;SDS011;71057;51.436;6.768;2023-11-19T06:11:24;22.70;;;9.20;;
81648;SDS011;71057;51.436;6.768;2023-11-19T06:13:52;38.28;;;11.23;;
81648;SDS011;71057;51.436;6.768;2023-11-19T06:16:17;39.10;;;11.55;;
81648;SDS011;71057;51.436;6.768;2023-11-19T06:18:43;37.75;;;12.85;;
81648;SDS011;71057;51.436;6.768;2023-11-19T06:21:09;28.17;;;8.50;;
81648;SDS011;71057;51.436;6.768;2023-11-19T06:23:35;28.33;;;8.05;;
81648;SDS011;71057;51.436;6.768;2023-11-19T06:26:00;24.10;;;7.33;;
81648;SDS011;71057;51.436;6.768;2023-11-19T06:28:25;17.85;;;4.72;;
81648;SDS011;71057;51.436;6.768;2023-11-19T06:30:50;14.33;;;3.67;;
81648;SDS011;71057;51.436;6.768;2023-11-19T06:33:16;14.60;;;3.10;;
81648;SDS011;71057;51.436;6.768;2023-11-19T06:35:41;14.38;;;3.17;;
81648;SDS011;71057;51.436;6.768;2023-11-19T06:38:07;15.95;;;3.17;;
81648;SDS011;71057;51.436;6.768;2023-11-19T06:40:32;14.25;;;3.20;;
81648;SDS011;71057;51.436;6.768;2023-11-19T06:42:58;15.95;;;4.07;;
81648;SDS011;71057;51.436;6.768;2023-11-19T06:45:23;16.00;;;2.53;;
81648;SDS011;71057;51.436;6.768;2023-11-19T06:47:49;17.63;;;3.30;;
81648;SDS011;71057;51.436;6.768;2023-11-19T06:50:15;17.88;;;3.88;;
81648;SDS011;71057;51.436;6.768;2023-11-19T06:52:40;16.27;;;3.40;;
81648;SDS011;71057;51.436;6.768;2023-11-19T06:55:06;14.30;;;3.03;;
81648;SDS011;71057;51.436;6.768;2023-11-19T06:57:31;15.10;;;2.97;;
81648;SDS011;71057;51.436;6.768;2023-11-19T06:59:57;15.52;;;3.08;;
81648;SDS011;71057;51.436;6.768;2023-11-19T07:02:23;19.80;;;3.65;;
81648;SDS011;71057;51.436;6.768;2023-11-19T07:04:49;17.83;;;3.70;;
81648;SDS011;71057;51.436;6.768;2023-11-19T07:07:14;15.05;;;3.22;;
81648;SDS011;71057;51.436;6.768;2023-11-19T07:09:40;17.52;;;3.67;;
81648;SDS011;71057;51.436;6.768;2023-11-19T07:12:06;18.25;;;3.67;;
81648;SDS011;71057;51.436;6.768;2023-11-19T07:14:31;14.30;;;2.78;;
81648;SDS011;71057;51.436;6.768;2023-11-19T07:16:57;20.48;;;3.83;;
81648;SDS011;71057;51.436;6.768;2023-11-19T07:19:22;14.57;;;2.90;;
81648;SDS011;71057;51.436;6.768;2023-11-19T07:21:47;17.13;;;4.07;;
81648;SDS011;71057;51.436;6.768;2023-11-19T07:24:13;20.23;;;4.43;;
81648;SDS011;71057;51.436;6.768;2023-11-19T07:26:42;19.20;;;2.58;;
81648;SDS011;71057;51.436;6.768;2023-11-19T07:29:09;21.20;;;3.03;;
81648;SDS011;71057;51.436;6.768;2023-11-19T07:31:34;19.38;;;3.05;;
81648;SDS011;71057;51.436;6.768;2023-11-19T07:33:59;16.17;;;2.80;;
81648;SDS011;71057;51.436;6.768;2023-11-19T07:36:25;12.27;;;3.10;;
81648;SDS011;71057;51.436;6.768;2023-11-19T07:38:50;16.97;;;2.97;;
81648;SDS011;71057;51.436;6.768;2023-11-19T07:41:16;14.23;;;3.13;;
81648;SDS011;71057;51.436;6.768;2023-11-19T07:43:44;16.77;;;2.77;;
81648;SDS011;71057;51.436;6.768;2023-11-19T07:46:11;13.88;;;2.50;;
81648;SDS011;71057;51.436;6.768;2023-11-19T07:48:38;17.55;;;3.67;;
81648;SDS011;71057;51.436;6.768;2023-11-19T07:51:03;17.98;;;3.25;;
81648;SDS011;71057;51.436;6.768;2023-11-19T07:53:29;15.52;;;4.18;;
81648;SDS011;71057;51.436;6.768;2023-11-19T07:55:54;16.30;;;3.73;;
81648;SDS011;71057;51.436;6.768;2023-11-19T07:58:19;17.50;;;3.90;;
81648;SDS011;71057;51.436;6.768;2023-11-19T08:00:45;14.57;;;3.83;;
81648;SDS011;71057;51.436;6.768;2023-11-19T08:03:10;18.73;;;4.45;;
81648;SDS011;71057;51.436;6.768;2023-11-19T08:05:36;14.00;;;5.00;;
81648;SDS011;71057;51.436;6.768;2023-11-19T08:08:01;20.13;;;5.07;;
81648;SDS011;71057;51.436;6.768;2023-11-19T08:10:26;86.97;;;21.20;;
81648;SDS011;71057;51.436;6.768;2023-11-19T08:12:52;89.28;;;20.63;;
81648;SDS011;71057;51.436;6.768;2023-11-19T08:15:17;49.03;;;13.38;;
81648;SDS011;71057;51.436;6.768;2023-11-19T08:17:42;44.33;;;13.60;;
81648;SDS011;71057;51.436;6.768;2023-11-19T08:20:08;30.02;;;11.35;;
81648;SDS011;71057;51.436;6.768;2023-11-19T08:22:37;26.55;;;8.10;;
81648;SDS011;71057;51.436;6.768;2023-11-19T08:25:04;17.73;;;6.80;;
81648;SDS011;71057;51.436;6.768;2023-11-19T08:27:30;22.42;;;8.98;;
81648;SDS011;71057;51.436;6.768;2023-11-19T08:29:55;26.35;;;7.65;;
81648;SDS011;71057;51.436;6.768;2023-11-19T08:32:24;13.82;;;5.28;;
81648;SDS011;71057;51.436;6.768;2023-11-19T08:34:49;18.98;;;5.55;;
81648;SDS011;71057;51.436;6.768;2023-11-19T08:37:15;15.23;;;4.50;;
81648;SDS011;71057;51.436;6.768;2023-11-19T08:39:40;28.30;;;5.95;;
81648;SDS011;71057;51.436;6.768;2023-11-19T08:42:07;18.30;;;5.85;;
81648;SDS011;71057;51.436;6.768;2023-11-19T08:44:32;21.30;;;5.63;;
81648;SDS011;71057;51.436;6.768;2023-11-19T08:46:57;18.73;;;4.10;;
81648;SDS011;71057;51.436;6.768;2023-11-19T08:49:23;13.35;;;3.95;;
81648;SDS011;71057;51.436;6.768;2023-11-19T08:51:48;16.50;;;4.30;;
81648;SDS011;71057;51.436;6.768;2023-11-19T08:54:14;17.73;;;3.17;;
81648;SDS011;71057;51.436;6.768;2023-11-19T08:56:39;15.63;;;2.95;;
81648;SDS011;71057;51.436;6.768;2023-11-19T08:59:05;17.85;;;4.03;;
81648;SDS011;71057;51.436;6.768;2023-11-19T09:01:30;16.30;;;4.18;;
81648;SDS011;71057;51.436;6.768;2023-11-19T09:03:55;15.45;;;4.90;;
81648;SDS011;71057;51.436;6.768;2023-11-19T09:06:21;18.88;;;5.13;;
81648;SDS011;71057;51.436;6.768;2023-11-19T09:08:46;21.73;;;5.90;;
81648;SDS011;71057;51.436;6.768;2023-11-19T09:11:11;21.07;;;4.90;;
81648;SDS011;71057;51.436;6.768;2023-11-19T09:13:37;21.63;;;4.87;;
81648;SDS011;71057;51.436;6.768;2023-11-19T09:16:02;20.80;;;6.53;;
81648;SDS011;71057;51.436;6.768;2023-11-19T09:18:31;23.52;;;6.32;;
81648;SDS011;71057;51.436;6.768;2023-11-19T09:20:57;24.65;;;6.68;;
81648;SDS011;71057;51.436;6.768;2023-11-19T09:23:23;14.95;;;5.07;;
81648;SDS011;71057;51.436;6.768;2023-11-19T09:25:50;18.05;;;3.20;;
81648;SDS011;71057;51.436;6.768;2023-11-19T09:28:15;14.15;;;3.03;;
81648;SDS011;71057;51.436;6.768;2023-11-19T09:30:41;12.60;;;3.22;;
81648;SDS011;71057;51.436;6.768;2023-11-19T09:33:06;13.83;;;4.23;;
81648;SDS011;71057;51.436;6.768;2023-11-19T09:35:31;15.57;;;2.93;;
81648;SDS011;71057;51.436;6.768;2023-11-19T09:37:57;18.17;;;3.60;;
81648;SDS011;71057;51.436;6.768;2023-11-19T09:40:24;13.70;;;3.20;;
81648;SDS011;71057;51.436;6.768;2023-11-19T09:42:49;18.02;;;3.33;;
81648;SDS011;71057;51.436;6.768;2023-11-19T09:45:15;15.63;;;2.75;;
81648;SDS011;71057;51.436;6.768;2023-11-19T09:47:45;14.70;;;3.58;;
81648;SDS011;71057;51.436;6.768;2023-11-19T09:50:14;17.50;;;2.97;;
81648;SDS011;71057;51.436;6.768;2023-11-19T09:52:43;15.75;;;3.35;;
81648;SDS011;71057;51.436;6.768;2023-11-19T09:55:10;12.38;;;2.88;;
81648;SDS011;71057;51.436;6.768;2023-11-19T09:57:35;16.38;;;3.60;;
81648;SDS011;71057;51.436;6.768;2023-11-19T10:00:05;17.73;;;3.63;;
81648;SDS011;71057;51.436;6.768;2023-11-19T10:02:32;11.77;;;3.35;;
81648;SDS011;71057;51.436;6.768;2023-11-19T10:05:00;18.45;;;3.83;;
81648;SDS011;71057;51.436;6.768;2023-11-19T10:07:30;17.60;;;3.60;;
81648;SDS011;71057;51.436;6.768;2023-11-19T10:09:57;17.80;;;3.55;;
81648;SDS011;71057;51.436;6.768;2023-11-19T10:12:27;16.25;;;3.03;;
81648;SDS011;71057;51.436;6.768;2023-11-19T10:14:54;15.50;;;3.80;;
81648;SDS011;71057;51.436;6.768;2023-11-19T10:17:22;17.15;;;3.28;;
81648;SDS011;71057;51.436;6.768;2023-11-19T10:19:54;22.67;;;3.55;;
81648;SDS011;71057;51.436;6.768;2023-11-19T10:22:19;16.20;;;4.13;;
81648;SDS011;71057;51.436;6.768;2023-11-19T10:24:45;19.80;;;3.70;;
81648;SDS011;71057;51.436;6.768;2023-11-19T10:27:10;19.43;;;3.27;;
81648;SDS011;71057;51.436;6.768;2023-11-19T10:29:36;12.33;;;4.10;;
81648;SDS011;71057;51.436;6.768;2023-11-19T10:32:02;15.15;;;3.25;;
81648;SDS011;71057;51.436;6.768;2023-11-19T10:34:29;16.95;;;3.72;;
81648;SDS011;71057;51.436;6.768;2023-11-19T10:36:55;10.85;;;2.88;;
81648;SDS011;71057;51.436;6.768;2023-11-19T10:39:20;14.68;;;3.10;;
81648;SDS011;71057;51.436;6.768;2023-11-19T10:41:46;12.85;;;3.67;;
81648;SDS011;71057;51.436;6.768;2023-11-19T10:44:11;12.70;;;3.40;;
81648;SDS011;71057;51.436;6.768;2023-11-19T10:46:40;12.07;;;3.40;;
81648;SDS011;71057;51.436;6.768;2023-11-19T10:49:07;15.63;;;3.63;;
81648;SDS011;71057;51.436;6.768;2023-11-19T10:51:33;14.52;;;2.70;;
81648;SDS011;71057;51.436;6.768;2023-11-19T10:54:01;20.20;;;3.97;;
81648;SDS011;71057;51.436;6.768;2023-11-19T10:56:31;13.60;;;3.05;;
81648;SDS011;71057;51.436;6.768;2023-11-19T10:58:57;13.77;;;3.53;;
81648;SDS011;71057;51.436;6.768;2023-11-19T11:01:26;13.95;;;3.60;;
81648;SDS011;71057;51.436;6.768;2023-11-19T11:03:58;12.20;;;2.55;;
81648;SDS011;71057;51.436;6.768;2023-11-19T11:06:24;12.75;;;2.65;;
81648;SDS011;71057;51.436;6.768;2023-11-19T11:08:52;13.73;;;3.92;;
81648;SDS011;71057;51.436;6.768;2023-11-19T11:11:19;18.23;;;3.55;;
81648;SDS011;71057;51.436;6.768;2023-11-19T11:13:49;14.35;;;4.85;;
81648;SDS011;71057;51.436;6.768;2023-11-19T11:16:17;16.95;;;4.70;;
81648;SDS011;71057;51.436;6.768;2023-11-19T11:18:44;20.15;;;5.10;;
81648;SDS011;71057;51.436;6.768;2023-11-19T11:21:14;17.85;;;4.53;;
81648;SDS011;71057;51.436;6.768;2023-11-19T11:23:47;14.60;;;4.32;;
81648;SDS011;71057;51.436;6.768;2023-11-19T11:29:45;16.45;;;3.83;;
81648;SDS011;71057;51.436;6.768;2023-11-19T11:40:21;24.98;;;6.60;;
81648;SDS011;71057;51.436;6.768;2023-11-19T11:42:48;17.40;;;4.97;;
81648;SDS011;71057;51.436;6.768;2023-11-19T11:45:15;17.85;;;5.00;;
81648;SDS011;71057;51.436;6.768;2023-11-19T11:50:10;18.98;;;4.88;;
81648;SDS011;71057;51.436;6.768;2023-11-19T11:57:51;15.98;;;5.07;;
81648;SDS011;71057;51.436;6.768;2023-11-19T12:02:57;15.35;;;3.60;;
81648;SDS011;71057;51.436;6.768;2023-11-19T12:05:25;13.93;;;3.70;;
81648;SDS011;71057;51.436;6.768;2023-11-19T12:08:00;15.00;;;3.58;;
81648;SDS011;71057;51.436;6.768;2023-11-19T12:10:31;14.20;;;3.63;;
81648;SDS011;71057;51.436;6.768;2023-11-19T12:13:02;10.10;;;3.30;;
81648;SDS011;71057;51.436;6.768;2023-11-19T12:15:31;11.90;;;2.63;;
81648;SDS011;71057;51.436;6.768;2023-11-19T12:17:57;12.70;;;2.40;;
81648;SDS011;71057;51.436;6.768;2023-11-19T12:20:26;12.45;;;2.40;;
81648;SDS011;71057;51.436;6.768;2023-11-19T12:22:52;12.57;;;2.35;;
81648;SDS011;71057;51.436;6.768;2023-11-19T12:25:18;15.80;;;3.55;;
81648;SDS011;71057;51.436;6.768;2023-11-19T12:27:49;12.25;;;2.92;;
81648;SDS011;71057;51.436;6.768;2023-11-19T12:30:22;12.23;;;3.15;;
81648;SDS011;71057;51.436;6.768;2023-11-19T12:32:52;13.15;;;2.78;;
81648;SDS011;71057;51.436;6.768;2023-11-19T12:35:18;11.55;;;2.67;;
81648;SDS011;71057;51.436;6.768;2023-11-19T12:37:48;11.65;;;2.63;;
81648;SDS011;71057;51.436;6.768;2023-11-19T12:40:15;13.55;;;3.58;;
81648;SDS011;71057;51.436;6.768;2023-11-19T12:42:42;19.67;;;5.55;;
81648;SDS011;71057;51.436;6.768;2023-11-19T12:45:08;17.98;;;6.35;;
81648;SDS011;71057;51.436;6.768;2023-11-19T12:47:35;16.83;;;4.60;;
81648;SDS011;71057;51.436;6.768;2023-11-19T12:50:02;17.65;;;4.78;;
81648;SDS011;71057;51.436;6.768;2023-11-19T12:52:27;15.60;;;3.65;;
81648;SDS011;71057;51.436;6.768;2023-11-19T12:54:52;17.43;;;5.80;;
81648;SDS011;71057;51.436;6.768;2023-11-19T12:57:17;17.63;;;4.87;;
81648;SDS011;71057;51.436;6.768;2023-11-19T12:59:55;17.27;;;4.78;;
81648;SDS011;71057;51.436;6.768;2023-11-19T13:02:24;19.92;;;5.93;;
81648;SDS011;71057;51.436;6.768;2023-11-19T13:08:00;17.08;;;5.40;;
81648;SDS011;71057;51.436;6.768;2023-11-19T13:10:29;13.27;;;3.42;;
81648;SDS011;71057;51.436;6.768;2023-11-19T13:13:03;17.45;;;3.03;;
81648;SDS011;71057;51.436;6.768;2023-11-19T13:15:33;9.88;;;3.25;;
81648;SDS011;71057;51.436;6.768;2023-11-19T13:18:00;13.43;;;2.83;;
81648;SDS011;71057;51.436;6.768;2023-11-19T13:20:26;7.35;;;2.33;;
81648;SDS011;71057;51.436;6.768;2023-11-19T13:22:57;9.75;;;2.38;;
81648;SDS011;71057;51.436;6.768;2023-11-19T13:25:24;12.52;;;2.58;;
81648;SDS011;71057;51.436;6.768;2023-11-19T13:27:50;14.77;;;2.88;;
81648;SDS011;71057;51.436;6.768;2023-11-19T13:30:16;13.48;;;4.00;;
81648;SDS011;71057;51.436;6.768;2023-11-19T13:32:41;15.43;;;4.40;;
81648;SDS011;71057;51.436;6.768;2023-11-19T13:35:08;13.15;;;3.60;;
81648;SDS011;71057;51.436;6.768;2023-11-19T13:37:34;14.48;;;5.15;;
81648;SDS011;71057;51.436;6.768;2023-11-19T13:39:59;16.88;;;6.05;;
81648;SDS011;71057;51.436;6.768;2023-11-19T13:42:25;13.32;;;2.95;;
81648;SDS011;71057;51.436;6.768;2023-11-19T13:44:50;15.98;;;3.78;;
81648;SDS011;71057;51.436;6.768;2023-11-19T13:47:16;13.00;;;3.67;;
81648;SDS011;71057;51.436;6.768;2023-11-19T13:49:41;11.57;;;3.28;;
81648;SDS011;71057;51.436;6.768;2023-11-19T13:52:06;14.23;;;3.00;;
81648;SDS011;71057;51.436;6.768;2023-11-19T13:54:31;9.67;;;2.53;;
81648;SDS011;71057;51.436;6.768;2023-11-19T13:56:57;12.45;;;2.67;;
81648;SDS011;71057;51.436;6.768;2023-11-19T13:59:26;10.52;;;2.75;;
81648;SDS011;71057;51.436;6.768;2023-11-19T14:01:51;9.23;;;3.35;;
81648;SDS011;71057;51.436;6.768;2023-11-19T14:04:16;9.00;;;2.47;;
81648;SDS011;71057;51.436;6.768;2023-11-19T14:06:44;13.20;;;3.47;;
81648;SDS011;71057;51.436;6.768;2023-11-19T14:09:10;14.50;;;4.18;;
81648;SDS011;71057;51.436;6.768;2023-11-19T14:11:35;10.68;;;3.33;;
81648;SDS011;71057;51.436;6.768;2023-11-19T14:14:00;13.55;;;2.97;;
81648;SDS011;71057;51.436;6.768;2023-11-19T14:16:26;11.67;;;2.57;;
81648;SDS011;71057;51.436;6.768;2023-11-19T14:18:52;15.05;;;3.72;;
81648;SDS011;71057;51.436;6.768;2023-11-19T14:21:17;15.80;;;2.80;;
81648;SDS011;71057;51.436;6.768;2023-11-19T14:23:43;12.15;;;3.40;;
81648;SDS011;71057;51.436;6.768;2023-11-19T14:26:08;9.70;;;2.70;;
81648;SDS011;71057;51.436;6.768;2023-11-19T14:28:33;10.27;;;3.90;;
81648;SDS011;71057;51.436;6.768;2023-11-19T14:30:59;14.70;;;3.20;;
81648;SDS011;71057;51.436;6.768;2023-11-19T14:33:24;12.13;;;2.83;;
81648;SDS011;71057;51.436;6.768;2023-11-19T14:35:50;12.80;;;3.53;;
81648;SDS011;71057;51.436;6.768;2023-11-19T14:38:15;13.48;;;3.70;;
81648;SDS011;71057;51.436;6.768;2023-11-19T14:40:40;12.67;;;3.47;;
81648;SDS011;71057;51.436;6.768;2023-11-19T14:43:07;12.45;;;5.25;;
81648;SDS011;71057;51.436;6.768;2023-11-19T14:45:35;15.35;;;6.13;;
81648;SDS011;71057;51.436;6.768;2023-11-19T14:48:00;20.25;;;6.60;;
81648;SDS011;71057;51.436;6.768;2023-11-19T14:50:26;11.63;;;3.42;;
81648;SDS011;71057;51.436;6.768;2023-11-19T14:52:53;15.18;;;3.30;;
81648;SDS011;71057;51.436;6.768;2023-11-19T14:55:18;10.63;;;2.83;;
81648;SDS011;71057;51.436;6.768;2023-11-19T14:57:43;17.20;;;3.15;;